sensor_id;sensor_type;location;lat;lon;timestamp;temperature;humidity
15288;DHT22;7745;48.708;9.026;2022-07-06T00:00:04;17.00;99.90
15288;DHT22;7745;48.708;9.026;2022-07-06T00:02:31;17.10;99.90
15288;DHT22;7745;48.708;9.026;2022-07-06T00:04:58;17.00;99.90
15288;DHT22;7745;48.708;9.026;2022-07-06T00:07:25;17.00;99.90
15288;DHT22;7745;48.708;9.026;2022-07-06T00:09:53;17.00;99.90
15288;DHT22;7745;48.708;9.026;2022-07-06T00:12:19;16.90;99.90
15288;DHT22;7745;48.708;9.026;2022-07-06T00:14:46;17.00;99.90
15288;DHT22;7745;48.708;9.026;2022-07-06T00:17:13;16.90;99.90
15288;DHT22;7745;48.708;9.026;2022-07-06T00:19:43;16.90;99.90
15288;DHT22;7745;48.708;9.026;2022-07-06T00:22:10;17.00;99.90
15288;DHT22;7745;48.708;9.026;2022-07-06T00:24:37;16.90;99.90
15288;DHT22;7745;48.708;9.026;2022-07-06T00:27:05;17.00;99.90
15288;DHT22;7745;48.708;9.026;2022-07-06T00:29:32;16.90;99.90
15288;DHT22;7745;48.708;9.026;2022-07-06T00:31:59;16.80;99.90
15288;DHT22;7745;48.708;9.026;2022-07-06T00:34:26;16.90;99.90
15288;DHT22;7745;48.708;9.026;2022-07-06T00:36:53;16.80;99.90
15288;DHT22;7745;48.708;9.026;2022-07-06T00:39:19;16.80;99.90
15288;DHT22;7745;48.708;9.026;2022-07-06T00:41:47;16.90;99.90
15288;DHT22;7745;48.708;9.026;2022-07-06T00:44:15;16.80;99.90
15288;DHT22;7745;48.708;9.026;2022-07-06T00:46:42;16.70;99.90
15288;DHT22;7745;48.708;9.026;2022-07-06T00:49:09;16.80;99.90
15288;DHT22;7745;48.708;9.026;2022-07-06T00:51:56;16.70;99.90
15288;DHT22;7745;48.708;9.026;2022-07-06T00:54:26;16.70;99.90
15288;DHT22;7745;48.708;9.026;2022-07-06T00:56:54;16.70;99.90
15288;DHT22;7745;48.708;9.026;2022-07-06T00:59:23;16.70;99.90
15288;DHT22;7745;48.708;9.026;2022-07-06T01:01:50;16.60;99.90
15288;DHT22;7745;48.708;9.026;2022-07-06T01:04:17;16.60;99.90
15288;DHT22;7745;48.708;9.026;2022-07-06T01:06:45;16.60;99.90
15288;DHT22;7745;48.708;9.026;2022-07-06T01:09:13;16.60;99.90
15288;DHT22;7745;48.708;9.026;2022-07-06T01:11:40;16.60;99.90
15288;DHT22;7745;48.708;9.026;2022-07-06T01:14:07;16.60;99.90
15288;DHT22;7745;48.708;9.026;2022-07-06T01:16:37;16.60;99.90
15288;DHT22;7745;48.708;9.026;2022-07-06T01:19:03;16.60;99.90
15288;DHT22;7745;48.708;9.026;2022-07-06T01:21:32;16.60;99.90
15288;DHT22;7745;48.708;9.026;2022-07-06T01:23:58;16.50;99.90
15288;DHT22;7745;48.708;9.026;2022-07-06T01:26:25;16.30;99.90
15288;DHT22;7745;48.708;9.026;2022-07-06T01:28:52;16.60;99.90
15288;DHT22;7745;48.708;9.026;2022-07-06T01:31:20;16.40;99.90
15288;DHT22;7745;48.708;9.026;2022-07-06T01:33:48;16.40;99.90
15288;DHT22;7745;48.708;9.026;2022-07-06T01:36:15;16.60;99.90
15288;DHT22;7745;48.708;9.026;2022-07-06T01:38:47;16.40;99.90
15288;DHT22;7745;48.708;9.026;2022-07-06T01:41:15;16.50;99.90
15288;DHT22;7745;48.708;9.026;2022-07-06T01:43:42;16.60;99.90
15288;DHT22;7745;48.708;9.026;2022-07-06T01:46:08;16.60;99.90
15288;DHT22;7745;48.708;9.026;2022-07-06T01:48:37;16.60;99.90
15288;DHT22;7745;48.708;9.026;2022-07-06T01:51:05;16.40;99.90
15288;DHT22;7745;48.708;9.026;2022-07-06T01:53:32;16.50;99.90
15288;DHT22;7745;48.708;9.026;2022-07-06T01:56:00;16.60;99.90
15288;DHT22;7745;48.708;9.026;2022-07-06T01:58:27;16.50;99.90
15288;DHT22;7745;48.708;9.026;2022-07-06T02:00:54;16.40;99.90
15288;DHT22;7745;48.708;9.026;2022-07-06T02:03:21;16.40;99.90
15288;DHT22;7745;48.708;9.026;2022-07-06T02:05:47;16.40;99.90
15288;DHT22;7745;48.708;9.026;2022-07-06T02:08:14;16.40;99.90
15288;DHT22;7745;48.708;9.026;2022-07-06T02:10:41;16.60;99.90
15288;DHT22;7745;48.708;9.026;2022-07-06T02:13:09;16.40;99.90
15288;DHT22;7745;48.708;9.026;2022-07-06T02:15:36;16.30;99.90
15288;DHT22;7745;48.708;9.026;2022-07-06T02:18:03;16.50;99.90
15288;DHT22;7745;48.708;9.026;2022-07-06T02:20:30;16.30;99.90
15288;DHT22;7745;48.708;9.026;2022-07-06T02:22:56;16.30;99.90
15288;DHT22;7745;48.708;9.026;2022-07-06T02:25:23;16.20;99.90
15288;DHT22;7745;48.708;9.026;2022-07-06T02:27:50;16.10;99.90
15288;DHT22;7745;48.708;9.026;2022-07-06T02:30:18;16.10;99.90
15288;DHT22;7745;48.708;9.026;2022-07-06T02:32:45;16.00;99.90
15288;DHT22;7745;48.708;9.026;2022-07-06T02:35:12;16.00;99.90
15288;DHT22;7745;48.708;9.026;2022-07-06T02:37:39;16.00;99.90
15288;DHT22;7745;48.708;9.026;2022-07-06T02:40:07;16.00;99.90
15288;DHT22;7745;48.708;9.026;2022-07-06T02:42:34;15.90;99.90
15288;DHT22;7745;48.708;9.026;2022-07-06T02:45:01;15.90;99.90
15288;DHT22;7745;48.708;9.026;2022-07-06T02:47:30;15.90;99.90
15288;DHT22;7745;48.708;9.026;2022-07-06T02:49:57;15.90;99.90
15288;DHT22;7745;48.708;9.026;2022-07-06T02:52:23;15.90;99.90
15288;DHT22;7745;48.708;9.026;2022-07-06T02:54:50;15.90;99.90
15288;DHT22;7745;48.708;9.026;2022-07-06T02:57:17;15.80;99.90
15288;DHT22;7745;48.708;9.026;2022-07-06T02:59:46;15.80;99.90
15288;DHT22;7745;48.708;9.026;2022-07-06T03:02:15;15.60;99.90
15288;DHT22;7745;48.708;9.026;2022-07-06T03:04:43;15.50;99.90
15288;DHT22;7745;48.708;9.026;2022-07-06T03:07:10;15.50;99.90
15288;DHT22;7745;48.708;9.026;2022-07-06T03:09:39;15.60;99.90
15288;DHT22;7745;48.708;9.026;2022-07-06T03:12:06;15.50;99.90
15288;DHT22;7745;48.708;9.026;2022-07-06T03:14:34;15.40;99.90
15288;DHT22;7745;48.708;9.026;2022-07-06T03:17:00;15.40;99.90
15288;DHT22;7745;48.708;9.026;2022-07-06T03:19:27;15.40;99.90
15288;DHT22;7745;48.708;9.026;2022-07-06T03:21:55;15.40;99.90
15288;DHT22;7745;48.708;9.026;2022-07-06T03:24:22;15.40;99.90
15288;DHT22;7745;48.708;9.026;2022-07-06T03:26:49;15.50;99.90
15288;DHT22;7745;48.708;9.026;2022-07-06T03:29:16;15.30;99.90
15288;DHT22;7745;48.708;9.026;2022-07-06T03:31:43;15.30;99.90
15288;DHT22;7745;48.708;9.026;2022-07-06T03:34:09;15.30;99.90
15288;DHT22;7745;48.708;9.026;2022-07-06T03:36:37;15.20;99.90
15288;DHT22;7745;48.708;9.026;2022-07-06T03:39:05;15.20;99.90
15288;DHT22;7745;48.708;9.026;2022-07-06T03:41:32;15.20;99.90
15288;DHT22;7745;48.708;9.026;2022-07-06T03:43:59;15.20;99.90
15288;DHT22;7745;48.708;9.026;2022-07-06T03:46:27;15.30;99.90
15288;DHT22;7745;48.708;9.026;2022-07-06T03:48:55;15.30;99.90
15288;DHT22;7745;48.708;9.026;2022-07-06T03:51:21;15.20;99.90
15288;DHT22;7745;48.708;9.026;2022-07-06T03:53:48;15.10;99.90
15288;DHT22;7745;48.708;9.026;2022-07-06T03:56:16;15.10;99.90
15288;DHT22;7745;48.708;9.026;2022-07-06T03:58:59;15.10;99.90
15288;DHT22;7745;48.708;9.026;2022-07-06T04:01:26;15.10;99.90
15288;DHT22;7745;48.708;9.026;2022-07-06T04:03:53;15.10;99.90
15288;DHT22;7745;48.708;9.026;2022-07-06T04:06:20;15.00;99.90
15288;DHT22;7745;48.708;9.026;2022-07-06T04:08:47;15.20;99.90
15288;DHT22;7745;48.708;9.026;2022-07-06T04:11:15;15.10;99.90
15288;DHT22;7745;48.708;9.026;2022-07-06T04:13:42;15.10;99.90
15288;DHT22;7745;48.708;9.026;2022-07-06T04:16:09;15.00;99.90
15288;DHT22;7745;48.708;9.026;2022-07-06T04:18:35;15.10;99.90
15288;DHT22;7745;48.708;9.026;2022-07-06T04:21:03;15.10;99.90
15288;DHT22;7745;48.708;9.026;2022-07-06T04:23:30;15.10;99.90
15288;DHT22;7745;48.708;9.026;2022-07-06T04:25:57;15.10;99.90
15288;DHT22;7745;48.708;9.026;2022-07-06T04:28:25;15.30;99.90
15288;DHT22;7745;48.708;9.026;2022-07-06T04:30:52;15.10;99.90
15288;DHT22;7745;48.708;9.026;2022-07-06T04:33:19;15.20;99.90
15288;DHT22;7745;48.708;9.026;2022-07-06T04:35:46;15.20;99.90
15288;DHT22;7745;48.708;9.026;2022-07-06T04:38:12;15.40;99.90
15288;DHT22;7745;48.708;9.026;2022-07-06T04:40:39;15.30;99.90
15288;DHT22;7745;48.708;9.026;2022-07-06T04:43:06;15.40;99.90
15288;DHT22;7745;48.708;9.026;2022-07-06T04:45:34;15.40;99.90
15288;DHT22;7745;48.708;9.026;2022-07-06T04:48:01;15.50;99.90
15288;DHT22;7745;48.708;9.026;2022-07-06T04:50:28;15.80;99.90
15288;DHT22;7745;48.708;9.026;2022-07-06T04:52:55;15.80;99.90
15288;DHT22;7745;48.708;9.026;2022-07-06T04:55:22;16.00;99.90
15288;DHT22;7745;48.708;9.026;2022-07-06T04:57:49;16.20;99.90
15288;DHT22;7745;48.708;9.026;2022-07-06T05:00:17;16.30;99.90
15288;DHT22;7745;48.708;9.026;2022-07-06T05:02:45;16.40;99.90
15288;DHT22;7745;48.708;9.026;2022-07-06T05:05:12;16.50;99.90
15288;DHT22;7745;48.708;9.026;2022-07-06T05:07:39;16.60;99.90
15288;DHT22;7745;48.708;9.026;2022-07-06T05:10:07;16.60;99.90
15288;DHT22;7745;48.708;9.026;2022-07-06T05:12:34;16.70;99.90
15288;DHT22;7745;48.708;9.026;2022-07-06T05:15:01;16.70;99.90
15288;DHT22;7745;48.708;9.026;2022-07-06T05:17:28;16.90;99.90
15288;DHT22;7745;48.708;9.026;2022-07-06T05:19:56;16.90;99.90
15288;DHT22;7745;48.708;9.026;2022-07-06T05:22:23;17.00;99.90
15288;DHT22;7745;48.708;9.026;2022-07-06T05:24:51;17.00;99.90
15288;DHT22;7745;48.708;9.026;2022-07-06T05:27:17;17.10;99.90
15288;DHT22;7745;48.708;9.026;2022-07-06T05:29:44;17.10;99.90
15288;DHT22;7745;48.708;9.026;2022-07-06T05:32:11;17.00;99.90
15288;DHT22;7745;48.708;9.026;2022-07-06T05:34:38;17.10;99.90
15288;DHT22;7745;48.708;9.026;2022-07-06T05:37:07;17.10;99.90
15288;DHT22;7745;48.708;9.026;2022-07-06T05:39:34;17.20;99.90
15288;DHT22;7745;48.708;9.026;2022-07-06T05:42:00;17.30;99.90
15288;DHT22;7745;48.708;9.026;2022-07-06T05:44:27;17.30;99.90
15288;DHT22;7745;48.708;9.026;2022-07-06T05:46:54;17.40;99.90
15288;DHT22;7745;48.708;9.026;2022-07-06T05:49:43;17.50;99.90
15288;DHT22;7745;48.708;9.026;2022-07-06T05:52:29;17.60;99.90
15288;DHT22;7745;48.708;9.026;2022-07-06T05:54:55;17.60;99.90
15288;DHT22;7745;48.708;9.026;2022-07-06T05:57:22;17.60;99.90
15288;DHT22;7745;48.708;9.026;2022-07-06T05:59:49;17.60;99.90
15288;DHT22;7745;48.708;9.026;2022-07-06T06:02:16;17.70;99.90
15288;DHT22;7745;48.708;9.026;2022-07-06T06:04:43;17.90;99.90
15288;DHT22;7745;48.708;9.026;2022-07-06T06:07:09;17.80;99.90
15288;DHT22;7745;48.708;9.026;2022-07-06T06:09:38;17.90;99.90
15288;DHT22;7745;48.708;9.026;2022-07-06T06:12:05;17.90;99.90
15288;DHT22;7745;48.708;9.026;2022-07-06T06:14:32;17.90;99.90
15288;DHT22;7745;48.708;9.026;2022-07-06T06:16:59;17.90;99.90
15288;DHT22;7745;48.708;9.026;2022-07-06T06:19:25;17.90;99.90
15288;DHT22;7745;48.708;9.026;2022-07-06T06:21:52;18.00;99.90
15288;DHT22;7745;48.708;9.026;2022-07-06T06:24:19;18.10;99.90
15288;DHT22;7745;48.708;9.026;2022-07-06T06:26:47;18.10;99.90
15288;DHT22;7745;48.708;9.026;2022-07-06T06:29:14;18.20;99.90
15288;DHT22;7745;48.708;9.026;2022-07-06T06:31:41;18.30;99.90
15288;DHT22;7745;48.708;9.026;2022-07-06T06:34:09;18.30;99.90
15288;DHT22;7745;48.708;9.026;2022-07-06T06:36:36;18.30;99.90
15288;DHT22;7745;48.708;9.026;2022-07-06T06:39:02;18.40;99.90
15288;DHT22;7745;48.708;9.026;2022-07-06T06:41:29;18.50;99.90
15288;DHT22;7745;48.708;9.026;2022-07-06T06:43:58;18.60;99.90
15288;DHT22;7745;48.708;9.026;2022-07-06T06:46:24;18.30;99.90
15288;DHT22;7745;48.708;9.026;2022-07-06T06:48:51;18.20;99.90
15288;DHT22;7745;48.708;9.026;2022-07-06T06:51:18;18.20;99.90
15288;DHT22;7745;48.708;9.026;2022-07-06T06:53:46;18.20;99.90
15288;DHT22;7745;48.708;9.026;2022-07-06T06:56:13;18.30;99.90
15288;DHT22;7745;48.708;9.026;2022-07-06T06:58:40;18.50;99.90
15288;DHT22;7745;48.708;9.026;2022-07-06T07:01:08;18.60;99.90
15288;DHT22;7745;48.708;9.026;2022-07-06T07:03:35;18.60;99.90
15288;DHT22;7745;48.708;9.026;2022-07-06T07:06:02;18.60;99.90
15288;DHT22;7745;48.708;9.026;2022-07-06T07:08:29;18.60;99.90
15288;DHT22;7745;48.708;9.026;2022-07-06T07:10:56;18.80;99.90
15288;DHT22;7745;48.708;9.026;2022-07-06T07:13:22;18.80;99.90
15288;DHT22;7745;48.708;9.026;2022-07-06T07:15:50;18.90;99.90
15288;DHT22;7745;48.708;9.026;2022-07-06T07:18:18;19.00;99.90
15288;DHT22;7745;48.708;9.026;2022-07-06T07:20:45;19.20;99.90
15288;DHT22;7745;48.708;9.026;2022-07-06T07:23:11;19.30;99.90
15288;DHT22;7745;48.708;9.026;2022-07-06T07:25:38;19.30;99.90
15288;DHT22;7745;48.708;9.026;2022-07-06T07:28:05;19.40;99.90
15288;DHT22;7745;48.708;9.026;2022-07-06T07:30:32;19.50;99.90
15288;DHT22;7745;48.708;9.026;2022-07-06T07:32:59;19.60;99.90
15288;DHT22;7745;48.708;9.026;2022-07-06T07:35:28;19.60;99.90
15288;DHT22;7745;48.708;9.026;2022-07-06T07:37:55;19.60;99.90
15288;DHT22;7745;48.708;9.026;2022-07-06T07:40:21;19.70;99.90
15288;DHT22;7745;48.708;9.026;2022-07-06T07:42:48;19.80;99.90
15288;DHT22;7745;48.708;9.026;2022-07-06T07:45:15;19.90;99.90
15288;DHT22;7745;48.708;9.026;2022-07-06T07:47:42;19.70;99.90
15288;DHT22;7745;48.708;9.026;2022-07-06T07:50:09;19.80;99.90
15288;DHT22;7745;48.708;9.026;2022-07-06T07:52:38;19.80;99.90
15288;DHT22;7745;48.708;9.026;2022-07-06T07:55:06;19.80;99.90
15288;DHT22;7745;48.708;9.026;2022-07-06T07:57:32;19.80;99.90
15288;DHT22;7745;48.708;9.026;2022-07-06T07:59:59;19.80;99.90
15288;DHT22;7745;48.708;9.026;2022-07-06T08:02:26;19.90;99.90
15288;DHT22;7745;48.708;9.026;2022-07-06T08:04:53;20.20;99.90
15288;DHT22;7745;48.708;9.026;2022-07-06T08:07:19;20.20;99.90
15288;DHT22;7745;48.708;9.026;2022-07-06T08:09:48;20.30;99.90
15288;DHT22;7745;48.708;9.026;2022-07-06T08:12:15;20.50;99.90
15288;DHT22;7745;48.708;9.026;2022-07-06T08:14:41;20.50;99.90
15288;DHT22;7745;48.708;9.026;2022-07-06T08:17:08;20.60;99.90
15288;DHT22;7745;48.708;9.026;2022-07-06T08:19:35;20.40;99.90
15288;DHT22;7745;48.708;9.026;2022-07-06T08:22:03;20.30;99.90
15288;DHT22;7745;48.708;9.026;2022-07-06T08:24:33;20.30;99.90
15288;DHT22;7745;48.708;9.026;2022-07-06T08:27:01;20.40;99.90
15288;DHT22;7745;48.708;9.026;2022-07-06T08:29:31;20.50;99.90
15288;DHT22;7745;48.708;9.026;2022-07-06T08:31:59;20.70;99.90
15288;DHT22;7745;48.708;9.026;2022-07-06T08:34:26;20.90;99.90
15288;DHT22;7745;48.708;9.026;2022-07-06T08:36:53;20.90;99.90
15288;DHT22;7745;48.708;9.026;2022-07-06T08:39:21;21.00;99.90
15288;DHT22;7745;48.708;9.026;2022-07-06T08:41:49;21.10;99.90
15288;DHT22;7745;48.708;9.026;2022-07-06T08:44:18;21.10;99.90
15288;DHT22;7745;48.708;9.026;2022-07-06T08:46:45;21.10;99.90
15288;DHT22;7745;48.708;9.026;2022-07-06T08:49:14;21.00;99.90
15288;DHT22;7745;48.708;9.026;2022-07-06T08:51:41;21.10;99.90
15288;DHT22;7745;48.708;9.026;2022-07-06T08:54:08;21.00;99.90
15288;DHT22;7745;48.708;9.026;2022-07-06T08:56:37;21.10;99.90
15288;DHT22;7745;48.708;9.026;2022-07-06T08:59:04;21.00;99.90
15288;DHT22;7745;48.708;9.026;2022-07-06T09:01:35;21.00;99.90
15288;DHT22;7745;48.708;9.026;2022-07-06T09:04:04;21.30;99.90
15288;DHT22;7745;48.708;9.026;2022-07-06T09:06:31;21.40;99.90
15288;DHT22;7745;48.708;9.026;2022-07-06T09:09:03;21.50;99.90
15288;DHT22;7745;48.708;9.026;2022-07-06T09:11:31;21.60;99.90
15288;DHT22;7745;48.708;9.026;2022-07-06T09:13:58;21.50;99.90
15288;DHT22;7745;48.708;9.026;2022-07-06T09:16:26;21.60;99.90
15288;DHT22;7745;48.708;9.026;2022-07-06T09:18:55;21.60;99.90
15288;DHT22;7745;48.708;9.026;2022-07-06T09:21:23;21.60;99.90
15288;DHT22;7745;48.708;9.026;2022-07-06T09:23:53;21.50;99.90
15288;DHT22;7745;48.708;9.026;2022-07-06T09:26:21;21.50;99.90
15288;DHT22;7745;48.708;9.026;2022-07-06T09:28:48;21.50;99.90
15288;DHT22;7745;48.708;9.026;2022-07-06T09:31:15;21.50;99.90
15288;DHT22;7745;48.708;9.026;2022-07-06T09:33:55;21.60;99.90
15288;DHT22;7745;48.708;9.026;2022-07-06T09:36:42;21.50;99.90
15288;DHT22;7745;48.708;9.026;2022-07-06T09:39:21;21.50;99.90
15288;DHT22;7745;48.708;9.026;2022-07-06T09:41:50;21.40;99.90
15288;DHT22;7745;48.708;9.026;2022-07-06T09:44:26;21.60;99.90
15288;DHT22;7745;48.708;9.026;2022-07-06T09:46:54;21.70;99.90
15288;DHT22;7745;48.708;9.026;2022-07-06T09:49:24;21.70;99.90
15288;DHT22;7745;48.708;9.026;2022-07-06T09:51:53;21.90;99.90
15288;DHT22;7745;48.708;9.026;2022-07-06T09:54:21;21.90;99.90
15288;DHT22;7745;48.708;9.026;2022-07-06T09:56:48;21.90;99.90
15288;DHT22;7745;48.708;9.026;2022-07-06T09:59:17;21.90;99.90
15288;DHT22;7745;48.708;9.026;2022-07-06T10:01:45;22.00;99.90
15288;DHT22;7745;48.708;9.026;2022-07-06T10:04:14;22.10;99.90
15288;DHT22;7745;48.708;9.026;2022-07-06T10:06:45;22.00;99.90
15288;DHT22;7745;48.708;9.026;2022-07-06T10:09:13;22.10;99.90
15288;DHT22;7745;48.708;9.026;2022-07-06T10:11:43;22.30;99.90
15288;DHT22;7745;48.708;9.026;2022-07-06T10:14:12;22.40;99.90
15288;DHT22;7745;48.708;9.026;2022-07-06T10:16:41;22.40;99.90
15288;DHT22;7745;48.708;9.026;2022-07-06T10:19:09;22.40;99.90
15288;DHT22;7745;48.708;9.026;2022-07-06T10:21:38;22.50;99.90
15288;DHT22;7745;48.708;9.026;2022-07-06T10:24:08;22.50;99.90
15288;DHT22;7745;48.708;9.026;2022-07-06T10:26:36;22.30;99.90
15288;DHT22;7745;48.708;9.026;2022-07-06T10:29:04;22.10;99.90
15288;DHT22;7745;48.708;9.026;2022-07-06T10:31:33;22.00;99.90
15288;DHT22;7745;48.708;9.026;2022-07-06T10:34:01;22.20;99.90
15288;DHT22;7745;48.708;9.026;2022-07-06T10:36:30;22.30;99.90
15288;DHT22;7745;48.708;9.026;2022-07-06T10:38:57;22.60;99.90
15288;DHT22;7745;48.708;9.026;2022-07-06T10:41:45;22.60;99.90
15288;DHT22;7745;48.708;9.026;2022-07-06T10:44:19;22.30;99.90
15288;DHT22;7745;48.708;9.026;2022-07-06T10:46:50;22.00;99.90
15288;DHT22;7745;48.708;9.026;2022-07-06T10:49:18;22.10;99.90
15288;DHT22;7745;48.708;9.026;2022-07-06T10:51:46;22.00;99.90
15288;DHT22;7745;48.708;9.026;2022-07-06T10:54:16;21.80;99.90
15288;DHT22;7745;48.708;9.026;2022-07-06T10:56:48;21.80;99.90
15288;DHT22;7745;48.708;9.026;2022-07-06T10:59:17;21.70;99.90
15288;DHT22;7745;48.708;9.026;2022-07-06T11:02:14;21.70;99.90
15288;DHT22;7745;48.708;9.026;2022-07-06T11:04:46;21.70;99.90
15288;DHT22;7745;48.708;9.026;2022-07-06T11:07:14;21.60;99.90
15288;DHT22;7745;48.708;9.026;2022-07-06T11:09:42;21.50;99.90
15288;DHT22;7745;48.708;9.026;2022-07-06T11:12:21;21.40;99.90
15288;DHT22;7745;48.708;9.026;2022-07-06T11:14:49;21.50;99.90
15288;DHT22;7745;48.708;9.026;2022-07-06T11:17:16;21.60;99.90
15288;DHT22;7745;48.708;9.026;2022-07-06T11:19:50;21.70;99.90
15288;DHT22;7745;48.708;9.026;2022-07-06T11:22:17;21.70;99.90
15288;DHT22;7745;48.708;9.026;2022-07-06T11:24:45;21.90;99.90
15288;DHT22;7745;48.708;9.026;2022-07-06T11:27:13;22.00;99.90
15288;DHT22;7745;48.708;9.026;2022-07-06T11:29:41;22.20;99.90
15288;DHT22;7745;48.708;9.026;2022-07-06T11:32:11;22.10;99.90
15288;DHT22;7745;48.708;9.026;2022-07-06T11:34:41;22.10;99.90
15288;DHT22;7745;48.708;9.026;2022-07-06T11:37:09;21.80;99.90
15288;DHT22;7745;48.708;9.026;2022-07-06T11:39:37;21.60;99.90
15288;DHT22;7745;48.708;9.026;2022-07-06T11:42:07;21.50;99.90
15288;DHT22;7745;48.708;9.026;2022-07-06T11:44:34;21.50;99.90
15288;DHT22;7745;48.708;9.026;2022-07-06T11:47:03;21.50;99.90
15288;DHT22;7745;48.708;9.026;2022-07-06T11:49:31;21.50;99.90
15288;DHT22;7745;48.708;9.026;2022-07-06T11:51:58;21.50;99.90
15288;DHT22;7745;48.708;9.026;2022-07-06T11:54:26;21.50;99.90
15288;DHT22;7745;48.708;9.026;2022-07-06T11:56:55;21.30;99.90
15288;DHT22;7745;48.708;9.026;2022-07-06T11:59:25;21.20;99.90
15288;DHT22;7745;48.708;9.026;2022-07-06T12:01:59;21.40;99.90
15288;DHT22;7745;48.708;9.026;2022-07-06T12:04:27;21.50;99.90
15288;DHT22;7745;48.708;9.026;2022-07-06T12:06:54;21.60;99.90
15288;DHT22;7745;48.708;9.026;2022-07-06T12:09:21;21.80;99.90
15288;DHT22;7745;48.708;9.026;2022-07-06T12:11:49;22.00;99.90
15288;DHT22;7745;48.708;9.026;2022-07-06T12:14:17;22.00;99.90
15288;DHT22;7745;48.708;9.026;2022-07-06T12:16:45;22.30;99.90
15288;DHT22;7745;48.708;9.026;2022-07-06T12:19:12;22.30;99.90
15288;DHT22;7745;48.708;9.026;2022-07-06T12:21:45;22.30;99.90
15288;DHT22;7745;48.708;9.026;2022-07-06T12:24:18;22.10;99.90
15288;DHT22;7745;48.708;9.026;2022-07-06T12:26:46;21.90;99.90
15288;DHT22;7745;48.708;9.026;2022-07-06T12:29:13;21.90;99.90
15288;DHT22;7745;48.708;9.026;2022-07-06T12:31:41;21.90;99.90
15288;DHT22;7745;48.708;9.026;2022-07-06T12:34:13;22.00;99.90
15288;DHT22;7745;48.708;9.026;2022-07-06T12:36:46;22.10;99.90
15288;DHT22;7745;48.708;9.026;2022-07-06T12:39:15;22.10;99.90
15288;DHT22;7745;48.708;9.026;2022-07-06T12:41:47;22.10;99.90
15288;DHT22;7745;48.708;9.026;2022-07-06T12:44:17;22.20;99.90
15288;DHT22;7745;48.708;9.026;2022-07-06T12:46:44;22.30;99.90
15288;DHT22;7745;48.708;9.026;2022-07-06T12:49:14;22.30;99.90
15288;DHT22;7745;48.708;9.026;2022-07-06T12:51:59;22.20;99.90
15288;DHT22;7745;48.708;9.026;2022-07-06T12:54:29;22.00;99.90
15288;DHT22;7745;48.708;9.026;2022-07-06T12:57:02;21.80;99.90
15288;DHT22;7745;48.708;9.026;2022-07-06T12:59:30;21.90;99.90
15288;DHT22;7745;48.708;9.026;2022-07-06T13:01:57;21.80;99.90
15288;DHT22;7745;48.708;9.026;2022-07-06T13:04:24;21.80;99.90
15288;DHT22;7745;48.708;9.026;2022-07-06T13:06:51;21.80;99.90
15288;DHT22;7745;48.708;9.026;2022-07-06T13:09:19;21.80;99.90
15288;DHT22;7745;48.708;9.026;2022-07-06T13:11:47;21.80;99.90
15288;DHT22;7745;48.708;9.026;2022-07-06T13:14:14;22.00;99.90
15288;DHT22;7745;48.708;9.026;2022-07-06T13:16:42;22.00;99.90
15288;DHT22;7745;48.708;9.026;2022-07-06T13:19:09;22.10;99.90
15288;DHT22;7745;48.708;9.026;2022-07-06T13:21:36;22.30;99.90
15288;DHT22;7745;48.708;9.026;2022-07-06T13:24:03;22.50;99.90
15288;DHT22;7745;48.708;9.026;2022-07-06T13:26:32;22.50;99.90
15288;DHT22;7745;48.708;9.026;2022-07-06T13:28:59;22.50;99.90
15288;DHT22;7745;48.708;9.026;2022-07-06T13:31:26;22.50;99.90
15288;DHT22;7745;48.708;9.026;2022-07-06T13:33:53;22.60;99.90
15288;DHT22;7745;48.708;9.026;2022-07-06T13:36:20;22.60;99.90
15288;DHT22;7745;48.708;9.026;2022-07-06T13:38:47;22.50;99.90
15288;DHT22;7745;48.708;9.026;2022-07-06T13:41:14;22.30;99.90
15288;DHT22;7745;48.708;9.026;2022-07-06T13:43:42;22.20;99.90
15288;DHT22;7745;48.708;9.026;2022-07-06T13:46:09;22.20;99.90
15288;DHT22;7745;48.708;9.026;2022-07-06T13:48:37;22.20;99.90
15288;DHT22;7745;48.708;9.026;2022-07-06T13:51:04;22.30;99.90
15288;DHT22;7745;48.708;9.026;2022-07-06T13:53:31;22.40;99.90
15288;DHT22;7745;48.708;9.026;2022-07-06T13:55:59;22.40;99.90
15288;DHT22;7745;48.708;9.026;2022-07-06T13:58:26;22.40;99.90
15288;DHT22;7745;48.708;9.026;2022-07-06T14:00:54;22.30;99.90
15288;DHT22;7745;48.708;9.026;2022-07-06T14:03:21;22.50;99.90
15288;DHT22;7745;48.708;9.026;2022-07-06T14:05:53;22.50;99.90
15288;DHT22;7745;48.708;9.026;2022-07-06T14:08:20;22.50;99.90
15288;DHT22;7745;48.708;9.026;2022-07-06T14:10:48;22.60;99.90
15288;DHT22;7745;48.708;9.026;2022-07-06T14:13:15;22.60;99.90
15288;DHT22;7745;48.708;9.026;2022-07-06T14:15:42;22.60;99.90
15288;DHT22;7745;48.708;9.026;2022-07-06T14:18:10;22.40;99.90
15288;DHT22;7745;48.708;9.026;2022-07-06T14:20:37;22.50;99.90
15288;DHT22;7745;48.708;9.026;2022-07-06T14:23:04;22.40;99.90
15288;DHT22;7745;48.708;9.026;2022-07-06T14:25:31;22.50;99.90
15288;DHT22;7745;48.708;9.026;2022-07-06T14:27:57;22.50;99.90
15288;DHT22;7745;48.708;9.026;2022-07-06T14:30:24;22.60;99.90
15288;DHT22;7745;48.708;9.026;2022-07-06T14:32:51;22.60;99.90
15288;DHT22;7745;48.708;9.026;2022-07-06T14:35:19;22.50;99.90
15288;DHT22;7745;48.708;9.026;2022-07-06T14:37:47;22.50;99.90
15288;DHT22;7745;48.708;9.026;2022-07-06T14:40:14;22.40;99.90
15288;DHT22;7745;48.708;9.026;2022-07-06T14:42:41;22.20;99.90
15288;DHT22;7745;48.708;9.026;2022-07-06T14:45:08;22.30;99.90
15288;DHT22;7745;48.708;9.026;2022-07-06T14:47:35;22.40;99.90
15288;DHT22;7745;48.708;9.026;2022-07-06T14:50:03;22.60;99.90
15288;DHT22;7745;48.708;9.026;2022-07-06T14:52:31;22.70;99.90
15288;DHT22;7745;48.708;9.026;2022-07-06T14:54:58;22.80;99.90
15288;DHT22;7745;48.708;9.026;2022-07-06T14:57:26;22.80;99.90
15288;DHT22;7745;48.708;9.026;2022-07-06T14:59:52;23.00;99.90
15288;DHT22;7745;48.708;9.026;2022-07-06T15:02:19;22.90;99.90
15288;DHT22;7745;48.708;9.026;2022-07-06T15:04:46;22.90;99.90
15288;DHT22;7745;48.708;9.026;2022-07-06T15:07:13;23.00;99.90
15288;DHT22;7745;48.708;9.026;2022-07-06T15:09:41;23.00;99.90
15288;DHT22;7745;48.708;9.026;2022-07-06T15:12:09;23.00;99.90
15288;DHT22;7745;48.708;9.026;2022-07-06T15:14:36;23.20;99.90
15288;DHT22;7745;48.708;9.026;2022-07-06T15:17:03;23.40;99.90
15288;DHT22;7745;48.708;9.026;2022-07-06T15:19:32;23.50;99.90
15288;DHT22;7745;48.708;9.026;2022-07-06T15:22:00;23.40;99.90
15288;DHT22;7745;48.708;9.026;2022-07-06T15:24:27;23.60;99.90
15288;DHT22;7745;48.708;9.026;2022-07-06T15:26:55;23.60;99.90
15288;DHT22;7745;48.708;9.026;2022-07-06T15:29:22;23.60;99.90
15288;DHT22;7745;48.708;9.026;2022-07-06T15:31:49;23.50;99.90
15288;DHT22;7745;48.708;9.026;2022-07-06T15:34:15;23.40;99.90
15288;DHT22;7745;48.708;9.026;2022-07-06T15:36:42;23.40;99.90
15288;DHT22;7745;48.708;9.026;2022-07-06T15:39:10;23.40;99.90
15288;DHT22;7745;48.708;9.026;2022-07-06T15:41:37;23.50;99.90
15288;DHT22;7745;48.708;9.026;2022-07-06T15:44:06;23.50;99.90
15288;DHT22;7745;48.708;9.026;2022-07-06T15:46:32;23.60;99.90
15288;DHT22;7745;48.708;9.026;2022-07-06T15:48:59;23.60;99.90